Time;durP1;ratioP1;P1;durP2;ratioP2;P2;SDS_P1;SDS_P2;PMS_P1;PMS_P2;Temp;Humidity;BMP_temperature;BMP_pressure;BME280_temperature;BME280_humidity;BME280_pressure;Samples;Min_cycle;Max_cycle;Signal;HPM_P1;HPM_P2
2023/06/26 00:00:12;;;;;;;9.95;3.30;;;22.50;91.70;;;;;;4115150;28;20059;-55
2023/06/26 00:02:15;;;;;;;6.93;2.80;;;22.40;91.90;;;;;;4115319;28;20051;-55
2023/06/26 00:04:18;;;;;;;7.57;3.00;;;22.50;91.90;;;;;;4115511;28;20145;-55
2023/06/26 00:06:20;;;;;;;8.85;3.53;;;22.50;91.90;;;;;;4115405;28;20054;-55
2023/06/26 00:08:22;;;;;;;9.10;3.53;;;22.50;91.80;;;;;;4114255;28;20040;-55
2023/06/26 00:10:24;;;;;;;6.07;3.10;;;22.40;92.00;;;;;;4115146;28;20051;-55
2023/06/26 00:12:26;;;;;;;7.03;3.00;;;22.40;91.90;;;;;;4115402;28;20074;-54
2023/06/26 00:14:28;;;;;;;4.45;2.60;;;22.40;91.90;;;;;;4114981;28;20047;-56
2023/06/26 00:16:31;;;;;;;11.52;3.67;;;22.40;92.00;;;;;;4115331;28;20405;-56
2023/06/26 00:18:33;;;;;;;8.82;3.63;;;22.40;91.90;;;;;;4114488;28;20109;-56
2023/06/26 00:20:36;;;;;;;9.70;3.40;;;22.30;92.10;;;;;;4115318;28;20051;-55
2023/06/26 00:22:41;;;;;;;6.75;3.65;;;22.30;92.10;;;;;;4115146;28;20054;-55
2023/06/26 00:24:44;;;;;;;6.45;2.97;;;22.30;92.10;;;;;;4115193;28;20039;-56
2023/06/26 00:26:47;;;;;;;9.63;3.03;;;22.30;92.20;;;;;;4114155;28;20046;-56
2023/06/26 00:28:49;;;;;;;9.43;3.22;;;22.20;92.10;;;;;;4114732;28;20078;-55
2023/06/26 00:30:51;;;;;;;5.38;2.58;;;22.20;92.00;;;;;;4115160;28;20062;-55
2023/06/26 00:32:54;;;;;;;8.10;2.67;;;22.20;91.80;;;;;;4115136;28;20063;-56
2023/06/26 00:34:56;;;;;;;7.65;2.50;;;22.20;91.80;;;;;;4115229;28;20055;-55
2023/06/26 00:37:00;;;;;;;7.63;3.13;;;22.20;91.80;;;;;;4114151;28;20047;-56
2023/06/26 00:39:03;;;;;;;7.53;3.13;;;22.10;91.90;;;;;;4115031;28;20051;-55
2023/06/26 00:41:11;;;;;;;6.78;3.25;;;22.10;92.00;;;;;;4114937;28;20053;-56
2023/06/26 00:43:14;;;;;;;8.90;3.20;;;22.10;92.00;;;;;;4114518;28;20097;-53
2023/06/26 00:45:16;;;;;;;6.18;2.97;;;22.00;92.30;;;;;;4114896;28;20051;-55
2023/06/26 00:47:31;;;;;;;4.63;2.30;;;22.10;92.00;;;;;;4113907;28;20101;-54
2023/06/26 00:49:33;;;;;;;8.18;3.63;;;22.10;92.20;;;;;;4115070;28;20461;-53
2023/06/26 00:51:35;;;;;;;14.25;3.85;;;22.10;92.30;;;;;;4114937;28;20055;-53
2023/06/26 00:53:39;;;;;;;9.43;3.50;;;22.00;92.20;;;;;;4115594;28;20057;-55
2023/06/26 00:55:41;;;;;;;7.57;2.90;;;22.00;92.30;;;;;;4117035;28;20074;-56
2023/06/26 00:57:45;;;;;;;13.68;3.30;;;21.90;92.70;;;;;;4116594;28;20484;-55
2023/06/26 00:59:48;;;;;;;7.17;3.27;;;21.90;92.70;;;;;;4118109;28;20046;-56
2023/06/26 01:01:50;;;;;;;7.53;3.50;;;21.80;92.90;;;;;;4117878;28;20061;-55
2023/06/26 01:03:53;;;;;;;5.88;3.17;;;21.80;93.10;;;;;;4117948;28;20054;-55
2023/06/26 01:05:58;;;;;;;8.13;3.30;;;21.80;93.30;;;;;;4117988;28;20050;-55
2023/06/26 01:08:01;;;;;;;6.22;3.47;;;21.90;93.30;;;;;;4117321;28;20456;-58
2023/06/26 01:10:06;;;;;;;6.25;3.10;;;21.80;93.30;;;;;;4118277;28;20053;-60
2023/06/26 01:12:08;;;;;;;6.53;3.10;;;21.70;93.40;;;;;;4117887;28;20520;-54
2023/06/26 01:14:11;;;;;;;7.53;3.30;;;21.50;93.70;;;;;;4117781;28;20476;-53
2023/06/26 01:16:14;;;;;;;8.60;3.17;;;21.50;93.90;;;;;;4117705;28;20070;-54
2023/06/26 01:18:17;;;;;;;7.82;3.25;;;21.40;94.00;;;;;;4116863;28;20055;-52
2023/06/26 01:20:20;;;;;;;8.40;3.30;;;21.50;94.10;;;;;;4117982;28;20081;-57
2023/06/26 01:22:27;;;;;;;11.13;3.22;;;21.60;94.00;;;;;;4117664;28;20220;-56
2023/06/26 01:24:36;;;;;;;8.20;3.97;;;21.50;94.30;;;;;;4116495;28;20054;-57
2023/06/26 01:26:41;;;;;;;11.15;4.20;;;21.40;94.20;;;;;;4117634;28;20054;-55
2023/06/26 01:28:44;;;;;;;9.73;3.90;;;21.30;94.40;;;;;;4116697;28;20522;-58
2023/06/26 01:30:47;;;;;;;10.73;3.33;;;21.20;94.60;;;;;;4117712;28;20046;-56
2023/06/26 01:32:50;;;;;;;7.43;3.55;;;21.20;94.70;;;;;;4117501;28;20122;-56
2023/06/26 01:34:52;;;;;;;8.55;3.10;;;21.10;94.80;;;;;;4117408;28;20518;-57
2023/06/26 01:36:55;;;;;;;9.90;4.13;;;21.20;94.80;;;;;;4116762;28;20058;-58
2023/06/26 01:38:57;;;;;;;12.13;4.03;;;21.00;94.80;;;;;;4117218;28;20050;-58
2023/06/26 01:40:59;;;;;;;9.77;3.70;;;21.00;95.00;;;;;;4117442;28;20050;-58
2023/06/26 01:43:03;;;;;;;9.85;3.88;;;21.00;94.80;;;;;;4116812;28;20412;-58
2023/06/26 01:45:12;;;;;;;11.68;3.72;;;21.10;94.80;;;;;;4117194;28;20082;-58
2023/06/26 01:47:18;;;;;;;10.70;3.75;;;21.00;94.90;;;;;;4116437;28;20213;-59
2023/06/26 01:49:29;;;;;;;9.88;3.70;;;20.90;95.10;;;;;;4117148;28;20047;-58
2023/06/26 01:51:35;;;;;;;9.82;3.63;;;20.90;95.30;;;;;;4117448;28;20043;-58
2023/06/26 01:53:44;;;;;;;10.20;3.78;;;20.80;95.30;;;;;;4117438;28;20055;-58
2023/06/26 01:55:52;;;;;;;10.95;3.92;;;20.90;95.10;;;;;;4116968;28;20408;-57
2023/06/26 01:57:56;;;;;;;10.80;3.58;;;20.80;95.30;;;;;;4115979;28;20130;-55
2023/06/26 02:00:01;;;;;;;10.75;4.07;;;20.80;95.40;;;;;;4117185;28;20481;-55
2023/06/26 02:02:06;;;;;;;9.15;3.72;;;20.90;95.30;;;;;;4100175;29;20051;-55
2023/06/26 02:04:09;;;;;;;8.90;3.55;;;20.80;95.30;;;;;;4116895;28;20057;-55
2023/06/26 02:06:11;;;;;;;8.77;3.47;;;20.90;95.30;;;;;;4116945;28;20074;-53
2023/06/26 02:08:15;;;;;;;10.05;3.70;;;20.90;95.10;;;;;;4116025;28;20073;-53
2023/06/26 02:10:17;;;;;;;11.83;4.00;;;21.00;95.20;;;;;;4116713;28;20417;-53
2023/06/26 02:12:19;;;;;;;9.00;3.83;;;21.00;95.10;;;;;;4099749;29;20053;-53
2023/06/26 02:14:21;;;;;;;8.68;3.40;;;21.00;95.00;;;;;;4116897;28;20042;-53
2023/06/26 02:16:24;;;;;;;10.10;3.85;;;21.10;95.00;;;;;;4117029;28;20066;-54
2023/06/26 02:18:26;;;;;;;10.02;3.90;;;21.00;95.10;;;;;;4115803;28;20057;-54
2023/06/26 02:20:28;;;;;;;11.43;3.20;;;20.90;94.90;;;;;;4116932;28;20077;-53
2023/06/26 02:22:31;;;;;;;12.05;4.03;;;20.90;94.70;;;;;;4116595;28;20055;-54
2023/06/26 02:24:34;;;;;;;10.75;3.00;;;20.80;94.80;;;;;;4116945;28;20112;-54
2023/06/26 02:26:36;;;;;;;8.10;3.20;;;20.80;94.70;;;;;;4116480;28;20455;-53
2023/06/26 02:28:38;;;;;;;11.45;2.90;;;20.80;94.70;;;;;;4115742;28;20522;-53
2023/06/26 02:30:40;;;;;;;12.88;3.70;;;20.80;94.40;;;;;;4116518;28;20046;-53
2023/06/26 02:32:45;;;;;;;10.50;3.05;;;20.80;94.40;;;;;;4116894;28;20412;-53
2023/06/26 02:34:47;;;;;;;10.15;3.30;;;20.80;94.50;;;;;;4116665;28;20472;-54
2023/06/26 02:36:49;;;;;;;10.63;2.80;;;20.70;94.20;;;;;;4116451;28;20104;-53
2023/06/26 02:38:51;;;;;;;12.18;3.50;;;20.70;94.40;;;;;;4115399;28;20051;-54
2023/06/26 02:40:53;;;;;;;13.13;2.72;;;20.60;93.80;;;;;;4116281;28;20058;-54
2023/06/26 02:42:55;;;;;;;11.15;2.60;;;20.50;93.50;;;;;;4116524;28;20081;-53
2023/06/26 02:44:57;;;;;;;9.85;2.60;;;20.50;93.70;;;;;;4116105;28;20066;-54
2023/06/26 02:46:59;;;;;;;12.30;2.92;;;20.50;93.60;;;;;;4116545;28;20047;-53
2023/06/26 02:49:03;;;;;;;8.18;2.47;;;20.30;93.50;;;;;;4115419;28;20460;-54
2023/06/26 02:51:07;;;;;;;7.95;2.55;;;20.40;93.20;;;;;;4116597;28;20081;-53
2023/06/26 02:53:09;;;;;;;9.25;2.40;;;20.30;93.20;;;;;;4115302;28;20413;-53
2023/06/26 02:55:11;;;;;;;10.88;2.67;;;20.40;93.30;;;;;;4116873;28;20412;-62
2023/06/26 02:57:14;;;;;;;10.50;2.67;;;20.30;93.30;;;;;;4116331;28;20481;-54
2023/06/26 02:59:17;;;;;;;14.43;3.00;;;20.20;93.40;;;;;;4116262;28;20489;-53
2023/06/26 03:01:20;;;;;;;10.07;2.25;;;20.30;93.20;;;;;;4116466;28;20054;-53
2023/06/26 03:03:22;;;;;;;9.60;2.28;;;20.30;93.10;;;;;;4098975;29;20051;-53
2023/06/26 03:05:26;;;;;;;8.98;2.13;;;20.30;93.20;;;;;;4116246;28;20057;-54
2023/06/26 03:07:28;;;;;;;9.85;2.63;;;20.20;93.40;;;;;;4115280;28;20055;-54
2023/06/26 03:09:30;;;;;;;10.30;2.65;;;20.20;93.40;;;;;;4115637;28;20047;-54
2023/06/26 03:11:32;;;;;;;15.73;2.88;;;20.30;93.70;;;;;;4114440;28;20055;-53
2023/06/26 03:13:35;;;;;;;12.90;2.50;;;20.20;93.50;;;;;;4115990;28;20051;-53
2023/06/26 03:15:37;;;;;;;10.25;2.47;;;20.20;93.50;;;;;;4116070;28;20149;-57
2023/06/26 03:17:40;;;;;;;12.13;2.67;;;20.20;93.60;;;;;;4113408;28;20058;-56
2023/06/26 03:19:42;;;;;;;13.50;2.75;;;20.20;93.70;;;;;;4115777;28;20058;-56
2023/06/26 03:21:45;;;;;;;11.93;2.70;;;20.10;93.70;;;;;;4115854;28;20126;-56
2023/06/26 03:23:47;;;;;;;9.57;3.10;;;20.10;93.80;;;;;;4115454;28;20405;-56
2023/06/26 03:25:50;;;;;;;9.90;2.80;;;20.10;93.80;;;;;;4116135;28;20107;-57
2023/06/26 03:27:52;;;;;;;10.13;2.42;;;20.10;93.70;;;;;;4113744;28;20428;-56
2023/06/26 03:29:54;;;;;;;9.30;2.75;;;20.20;93.90;;;;;;4115945;28;20051;-56
2023/06/26 03:31:56;;;;;;;11.18;3.20;;;20.10;94.20;;;;;;4115905;28;20117;-56
2023/06/26 03:33:58;;;;;;;11.57;3.67;;;20.10;93.90;;;;;;4115876;28;20181;-56
2023/06/26 03:36:00;;;;;;;8.68;2.33;;;20.10;94.00;;;;;;4115625;28;20130;-56
2023/06/26 03:38:04;;;;;;;10.48;2.38;;;20.10;93.90;;;;;;4114654;28;20518;-56
2023/06/26 03:40:08;;;;;;;9.85;2.70;;;20.10;94.10;;;;;;4115658;28;20481;-56
2023/06/26 03:42:10;;;;;;;7.95;2.03;;;20.10;94.00;;;;;;4115656;28;20121;-57
2023/06/26 03:44:12;;;;;;;12.52;2.53;;;20.00;94.00;;;;;;4115627;28;20046;-56
2023/06/26 03:46:14;;;;;;;6.53;2.00;;;20.00;94.00;;;;;;4115437;28;20137;-56
2023/06/26 03:48:16;;;;;;;14.00;4.63;;;20.10;94.30;;;;;;4114302;28;20077;-56
2023/06/26 03:50:18;;;;;;;10.45;2.75;;;20.00;94.10;;;;;;4115790;28;20046;-56
2023/06/26 03:52:20;;;;;;;10.93;2.63;;;20.00;94.20;;;;;;4115109;28;20043;-57
2023/06/26 03:54:24;;;;;;;10.27;2.42;;;20.00;94.10;;;;;;4115460;28;20466;-56
2023/06/26 03:56:26;;;;;;;14.18;2.92;;;20.00;94.20;;;;;;4115479;28;20046;-54
2023/06/26 03:58:28;;;;;;;9.07;2.75;;;20.10;94.20;;;;;;4114494;28;20066;-54
2023/06/26 04:00:30;;;;;;;10.90;3.08;;;20.00;94.40;;;;;;4115372;28;20130;-53
2023/06/26 04:02:32;;;;;;;18.50;3.70;;;20.00;94.20;;;;;;4115613;28;20109;-54
2023/06/26 04:04:35;;;;;;;13.80;3.58;;;20.00;94.30;;;;;;4115447;28;20054;-54
2023/06/26 04:06:37;;;;;;;9.73;2.60;;;20.00;94.30;;;;;;4114958;28;20050;-53
2023/06/26 04:08:39;;;;;;;11.38;3.20;;;20.00;94.30;;;;;;4114363;28;20058;-53
2023/06/26 04:10:45;;;;;;;9.07;2.45;;;19.90;94.30;;;;;;4115253;28;20404;-58
2023/06/26 04:12:47;;;;;;;13.52;3.42;;;19.90;94.60;;;;;;4115473;28;20053;-54
2023/06/26 04:14:49;;;;;;;10.38;2.90;;;19.90;94.70;;;;;;4115399;28;20125;-56
2023/06/26 04:16:52;;;;;;;6.88;2.50;;;19.90;94.60;;;;;;4115209;28;20413;-57
2023/06/26 04:18:56;;;;;;;16.55;3.72;;;19.90;94.70;;;;;;4114443;28;20496;-56
2023/06/26 04:21:11;;;;;;;10.27;2.63;;;19.90;94.70;;;;;;4114864;28;20051;-56
2023/06/26 04:23:13;;;;;;;9.70;2.72;;;19.90;94.80;;;;;;4115238;28;20457;-57
2023/06/26 04:25:15;;;;;;;13.45;3.53;;;19.90;94.90;;;;;;4114066;28;20074;-56
2023/06/26 04:27:19;;;;;;;11.52;3.13;;;19.90;95.00;;;;;;4115246;28;20058;-55
2023/06/26 04:29:21;;;;;;;10.80;2.88;;;19.80;95.10;;;;;;4115814;28;20051;-53
2023/06/26 04:31:23;;;;;;;17.27;3.38;;;19.80;95.20;;;;;;4118627;28;20046;-53
2023/06/26 04:33:25;;;;;;;12.00;3.40;;;19.80;95.10;;;;;;4118703;28;20063;-53
2023/06/26 04:35:27;;;;;;;8.80;2.95;;;19.80;95.00;;;;;;4118261;28;20085;-54
2023/06/26 04:37:29;;;;;;;9.90;3.50;;;19.90;94.80;;;;;;4117585;28;20082;-54
2023/06/26 04:39:32;;;;;;;17.80;4.00;;;20.00;95.00;;;;;;4118640;28;20133;-54
2023/06/26 04:41:34;;;;;;;16.88;3.65;;;19.90;94.90;;;;;;4118988;28;20067;-53
2023/06/26 04:43:38;;;;;;;11.35;3.05;;;20.00;94.90;;;;;;4119087;28;20061;-53
2023/06/26 04:45:40;;;;;;;9.70;3.28;;;20.00;95.10;;;;;;4118222;28;20050;-53
2023/06/26 04:47:42;;;;;;;11.25;3.45;;;20.00;95.00;;;;;;4117663;28;20069;-53
2023/06/26 04:49:45;;;;;;;11.15;3.67;;;19.90;95.30;;;;;;4117806;28;20557;-53
2023/06/26 04:51:48;;;;;;;13.82;3.28;;;19.90;95.10;;;;;;4118366;28;20074;-55
2023/06/26 04:53:50;;;;;;;13.48;3.28;;;19.90;95.10;;;;;;4118123;28;20051;-53
2023/06/26 04:55:53;;;;;;;15.48;2.92;;;19.90;95.10;;;;;;4116772;28;20062;-54
2023/06/26 04:57:55;;;;;;;15.55;3.50;;;19.90;95.10;;;;;;4117247;28;20063;-56
2023/06/26 04:59:58;;;;;;;14.13;3.63;;;19.90;95.30;;;;;;4118183;28;20070;-54
2023/06/26 05:02:00;;;;;;;12.43;3.28;;;19.90;95.30;;;;;;4118207;28;20129;-53
2023/06/26 05:04:03;;;;;;;12.50;3.40;;;19.90;95.30;;;;;;4117869;28;20050;-56
2023/06/26 05:06:06;;;;;;;11.52;3.22;;;19.90;95.30;;;;;;4117794;28;20062;-57
2023/06/26 05:08:15;;;;;;;13.70;3.13;;;19.90;95.30;;;;;;4117156;28;20054;-58
2023/06/26 05:10:17;;;;;;;10.38;2.88;;;20.10;95.10;;;;;;4118104;28;20110;-55
2023/06/26 05:12:19;;;;;;;13.35;3.70;;;20.10;95.10;;;;;;4118013;28;20050;-56
2023/06/26 05:14:21;;;;;;;12.48;3.05;;;20.10;95.00;;;;;;4117803;28;20151;-55
2023/06/26 05:16:27;;;;;;;;;;;20.10;94.80;;;;;;4118554;28;20411;-56
2023/06/26 05:18:29;;;;;;;12.15;3.47;;;20.20;94.60;;;;;;4116871;28;20021;-56
2023/06/26 05:20:32;;;;;;;12.52;3.45;;;20.10;94.80;;;;;;4117563;28;20053;-56
2023/06/26 05:22:35;;;;;;;12.68;2.97;;;20.20;95.00;;;;;;4117885;28;20078;-56
2023/06/26 05:24:38;;;;;;;16.17;3.83;;;20.20;94.60;;;;;;4117961;28;20105;-56
2023/06/26 05:26:41;;;;;;;11.93;3.25;;;20.10;94.50;;;;;;4117764;28;20059;-57
2023/06/26 05:28:48;;;;;;;10.63;2.72;;;20.10;94.70;;;;;;4116537;28;20122;-55
2023/06/26 05:30:50;;;;;;;9.90;3.45;;;20.20;94.70;;;;;;4117425;28;20051;-57
2023/06/26 05:32:55;;;;;;;11.65;3.55;;;20.10;94.50;;;;;;4117494;28;20097;-57
2023/06/26 05:34:58;;;;;;;;;;;20.20;94.50;;;;;;4117763;28;20042;-56
2023/06/26 05:37:01;;;;;;;14.45;2.80;;;20.20;94.80;;;;;;4117732;28;19969;-56
2023/06/26 05:39:04;;;;;;;13.77;3.45;;;20.20;94.80;;;;;;4116752;28;20050;-57
2023/06/26 05:41:07;;;;;;;12.18;3.40;;;20.20;95.00;;;;;;4116991;28;20078;-56
2023/06/26 05:43:10;;;;;;;10.98;2.95;;;20.20;94.70;;;;;;4117345;28;20070;-58
2023/06/26 05:45:12;;;;;;;12.68;3.33;;;20.10;94.80;;;;;;4117113;28;20058;-57
2023/06/26 05:47:14;;;;;;;12.25;3.35;;;20.00;94.70;;;;;;4117520;28;20098;-53
2023/06/26 05:49:17;;;;;;;8.40;3.17;;;20.10;94.90;;;;;;4116067;28;20126;-52
2023/06/26 05:51:20;;;;;;;10.88;3.72;;;20.10;94.90;;;;;;4117713;28;20050;-54
2023/06/26 05:53:22;;;;;;;13.60;3.85;;;20.10;94.80;;;;;;4117262;28;20053;-56
2023/06/26 05:55:25;;;;;;;11.57;3.78;;;20.10;95.10;;;;;;4117318;28;20053;-56
2023/06/26 05:57:29;;;;;;;10.88;3.47;;;20.10;94.70;;;;;;4117328;28;20066;-56
2023/06/26 05:59:34;;;;;;;11.73;4.25;;;20.10;94.90;;;;;;4116379;28;20047;-56
2023/06/26 06:01:36;;;;;;;10.45;4.03;;;20.00;94.60;;;;;;4117278;28;20086;-55
2023/06/26 06:03:39;;;;;;;12.95;3.67;;;20.10;94.80;;;;;;4116917;28;20059;-57
2023/06/26 06:05:42;;;;;;;11.50;3.88;;;20.20;94.60;;;;;;4117164;28;20051;-56
2023/06/26 06:07:44;;;;;;;16.10;4.43;;;20.20;94.50;;;;;;4116517;28;20059;-57
2023/06/26 06:09:46;;;;;;;12.98;3.72;;;20.30;94.20;;;;;;4116805;28;20050;-56
2023/06/26 06:11:48;;;;;;;13.15;4.57;;;20.30;94.00;;;;;;4117177;28;20062;-55
2023/06/26 06:13:50;;;;;;;11.38;3.78;;;20.40;94.00;;;;;;4116936;28;20461;-56
2023/06/26 06:15:53;;;;;;;10.90;4.18;;;20.50;93.90;;;;;;4116742;28;20070;-56
2023/06/26 06:17:55;;;;;;;10.43;3.45;;;20.60;93.70;;;;;;4115767;28;20058;-56
2023/06/26 06:19:57;;;;;;;12.88;3.83;;;20.60;93.50;;;;;;4116931;28;20053;-57
2023/06/26 06:22:01;;;;;;;14.40;4.32;;;20.50;93.40;;;;;;4117115;28;20500;-56
2023/06/26 06:24:03;;;;;;;13.50;4.30;;;20.50;93.30;;;;;;4115583;28;20047;-57
2023/06/26 06:26:05;;;;;;;11.63;3.63;;;20.60;93.30;;;;;;4117276;28;20061;-57
2023/06/26 06:28:07;;;;;;;14.23;3.95;;;20.60;93.30;;;;;;4116741;28;20232;-55
2023/06/26 06:30:11;;;;;;;15.43;4.43;;;20.70;93.20;;;;;;4116806;28;20122;-54
2023/06/26 06:32:13;;;;;;;15.23;4.40;;;20.80;93.20;;;;;;4116492;28;20054;-55
2023/06/26 06:34:16;;;;;;;10.45;4.15;;;20.70;93.00;;;;;;4116579;28;20058;-54
2023/06/26 06:36:18;;;;;;;12.00;3.72;;;20.70;93.20;;;;;;4116813;28;20050;-54
2023/06/26 06:38:21;;;;;;;11.10;3.67;;;20.60;93.10;;;;;;4115853;28;20050;-53
2023/06/26 06:40:25;;;;;;;10.18;3.03;;;20.80;93.30;;;;;;4116310;28;20050;-54
2023/06/26 06:42:27;;;;;;;9.18;3.28;;;20.90;93.00;;;;;;4116703;28;20043;-56
2023/06/26 06:44:33;;;;;;;12.77;3.35;;;21.10;92.60;;;;;;4116513;28;20404;-55
2023/06/26 06:46:35;;;;;;;13.70;3.65;;;21.20;92.60;;;;;;4115907;28;20054;-54
2023/06/26 06:48:37;;;;;;;10.60;3.65;;;21.40;92.80;;;;;;4113894;28;20054;-55
2023/06/26 06:50:39;;;;;;;9.85;2.85;;;21.50;92.10;;;;;;4116499;28;20057;-54
2023/06/26 06:52:43;;;;;;;8.13;2.85;;;21.50;92.10;;;;;;4115410;28;20077;-54
2023/06/26 06:54:53;;;;;;;9.75;3.40;;;21.60;92.10;;;;;;4116245;28;20417;-54
2023/06/26 06:56:55;;;;;;;14.02;3.63;;;21.60;91.50;;;;;;4116479;28;20097;-53
2023/06/26 06:58:57;;;;;;;8.38;2.67;;;21.60;91.70;;;;;;4115225;28;20046;-54
2023/06/26 07:00:59;;;;;;;8.60;2.72;;;21.50;91.90;;;;;;4115816;28;20051;-54
2023/06/26 07:03:01;;;;;;;10.98;3.03;;;21.50;91.90;;;;;;4116068;28;20058;-53
2023/06/26 07:05:03;;;;;;;11.88;3.15;;;21.60;92.10;;;;;;4116147;28;20052;-52
2023/06/26 07:07:06;;;;;;;13.98;2.90;;;21.60;91.90;;;;;;4098936;28;20106;-52
2023/06/26 07:09:08;;;;;;;15.00;3.58;;;21.60;91.60;;;;;;4097862;29;20053;-52
2023/06/26 07:11:11;;;;;;;8.82;3.05;;;21.60;91.50;;;;;;4114960;28;20411;-55
2023/06/26 07:13:14;;;;;;;10.00;2.78;;;21.60;91.70;;;;;;4116153;28;20074;-55
2023/06/26 07:15:17;;;;;;;15.18;3.08;;;21.60;91.60;;;;;;4112974;28;20106;-55
2023/06/26 07:17:19;;;;;;;6.22;2.40;;;21.90;91.40;;;;;;4116179;28;20058;-57
2023/06/26 07:19:21;;;;;;;7.82;2.40;;;22.00;91.30;;;;;;4114844;28;20047;-54
2023/06/26 07:21:23;;;;;;;6.97;2.70;;;22.20;91.20;;;;;;4116073;28;20078;-55
2023/06/26 07:23:27;;;;;;;9.35;3.05;;;22.50;90.90;;;;;;4114649;28;20130;-55
2023/06/26 07:25:29;;;;;;;10.68;2.70;;;22.80;90.70;;;;;;4115546;28;20070;-55
2023/06/26 07:27:33;;;;;;;7.82;2.70;;;22.60;90.00;;;;;;4115807;28;20477;-54
2023/06/26 07:29:35;;;;;;;12.20;3.95;;;22.70;90.30;;;;;;4114592;28;20043;-54
2023/06/26 07:31:37;;;;;;;10.00;2.95;;;22.50;90.20;;;;;;4105051;28;20054;-55
2023/06/26 07:33:40;;;;;;;8.15;2.75;;;22.70;90.40;;;;;;4098985;29;20408;-55
2023/06/26 07:35:42;;;;;;;11.45;3.03;;;23.00;89.20;;;;;;4099490;29;20051;-54
2023/06/26 07:37:44;;;;;;;9.05;2.70;;;23.10;87.70;;;;;;4098695;29;20597;-55
2023/06/26 07:39:46;;;;;;;10.63;2.75;;;23.00;88.00;;;;;;4098659;29;20051;-55
2023/06/26 07:41:49;;;;;;;9.82;3.13;;;22.70;87.90;;;;;;4099624;29;20055;-55
2023/06/26 07:43:52;;;;;;;7.45;2.22;;;22.90;87.50;;;;;;4099264;29;20085;-55
2023/06/26 07:45:54;;;;;;;10.60;2.65;;;23.10;87.90;;;;;;4099499;29;20055;-54
2023/06/26 07:47:56;;;;;;;11.52;2.97;;;23.20;86.80;;;;;;4099615;29;20476;-55
2023/06/26 07:49:59;;;;;;;13.05;3.42;;;23.20;86.50;;;;;;4113898;28;20495;-55
2023/06/26 07:52:01;;;;;;;10.10;2.75;;;23.40;86.90;;;;;;4115579;28;20086;-55
2023/06/26 07:54:03;;;;;;;13.52;3.45;;;23.20;87.00;;;;;;4115661;28;20058;-55
2023/06/26 07:56:06;;;;;;;13.70;3.00;;;23.00;87.20;;;;;;4115500;28;20058;-55
2023/06/26 07:58:08;;;;;;;9.60;2.60;;;22.80;87.70;;;;;;4115113;28;20057;-55
2023/06/26 08:00:12;;;;;;;8.52;2.75;;;22.70;87.60;;;;;;4114736;28;20051;-55
2023/06/26 08:02:14;;;;;;;10.25;2.80;;;23.00;87.60;;;;;;4115412;28;20047;-52
2023/06/26 08:04:18;;;;;;;11.40;2.47;;;23.20;87.80;;;;;;4115502;28;20058;-53
2023/06/26 08:06:20;;;;;;;11.30;3.75;;;23.20;87.50;;;;;;4115646;28;20078;-53
2023/06/26 08:08:22;;;;;;;10.32;3.58;;;23.30;87.40;;;;;;4114556;28;20093;-53
2023/06/26 08:10:24;;;;;;;12.80;2.85;;;23.40;87.10;;;;;;4116090;28;20051;-56
2023/06/26 08:12:26;;;;;;;11.07;2.50;;;23.40;86.30;;;;;;4117743;28;20143;-57
2023/06/26 08:14:29;;;;;;;10.80;2.67;;;23.30;86.00;;;;;;4115803;28;20054;-55
2023/06/26 08:16:32;;;;;;;10.18;2.83;;;23.40;85.90;;;;;;4115368;28;20456;-55
2023/06/26 08:18:34;;;;;;;11.52;2.70;;;23.60;86.10;;;;;;4114503;28;20163;-55
2023/06/26 08:20:37;;;;;;;11.13;2.88;;;23.60;85.40;;;;;;4115392;28;20133;-52
2023/06/26 08:22:40;;;;;;;8.38;2.53;;;23.40;85.10;;;;;;4115150;28;20063;-52
2023/06/26 08:24:42;;;;;;;9.52;2.63;;;23.50;84.50;;;;;;4115548;28;20050;-54
2023/06/26 08:26:45;;;;;;;11.98;2.75;;;23.60;84.40;;;;;;4115407;28;20137;-55
2023/06/26 08:28:47;;;;;;;10.45;2.40;;;23.60;84.80;;;;;;4112628;28;20055;-54
2023/06/26 08:30:49;;;;;;;10.48;2.50;;;23.70;84.60;;;;;;4115367;28;20086;-55
2023/06/26 08:32:52;;;;;;;6.43;2.35;;;23.50;84.50;;;;;;4115391;28;20129;-55
2023/06/26 08:34:54;;;;;;;11.23;2.53;;;23.20;85.40;;;;;;4115250;28;20485;-55
2023/06/26 08:36:57;;;;;;;8.07;2.70;;;23.20;86.10;;;;;;4114935;28;20061;-55
2023/06/26 08:38:59;;;;;;;10.25;2.25;;;23.20;85.10;;;;;;4114142;28;20059;-55
2023/06/26 08:41:01;;;;;;;8.60;2.05;;;23.50;85.50;;;;;;4114959;28;20074;-56
2023/06/26 08:43:04;;;;;;;13.45;2.05;;;23.60;83.00;;;;;;4114675;28;20046;-55
2023/06/26 08:45:06;;;;;;;10.55;2.55;;;23.70;83.50;;;;;;4115180;28;20105;-56
2023/06/26 08:47:12;;;;;;;11.88;2.63;;;23.60;82.60;;;;;;4114915;28;20050;-55
2023/06/26 08:49:20;;;;;;;6.95;2.33;;;23.40;83.80;;;;;;4114171;28;20047;-55
2023/06/26 08:51:25;;;;;;;8.95;2.58;;;23.50;84.00;;;;;;4115039;28;20051;-56
2023/06/26 08:53:33;;;;;;;6.93;1.88;;;23.60;84.50;;;;;;4115129;28;20127;-56
2023/06/26 08:55:38;;;;;;;9.25;2.42;;;23.60;83.50;;;;;;4115351;28;20062;-53
2023/06/26 08:57:40;;;;;;;11.50;2.63;;;23.60;83.20;;;;;;4114507;28;20047;-53
2023/06/26 08:59:43;;;;;;;15.65;2.95;;;23.90;83.00;;;;;;4112639;28;20050;-56
2023/06/26 09:01:45;;;;;;;10.95;2.60;;;24.10;82.70;;;;;;4115024;28;20062;-55
2023/06/26 09:03:47;;;;;;;7.55;2.10;;;24.20;82.90;;;;;;4115014;28;20204;-55
2023/06/26 09:05:51;;;;;;;9.25;2.17;;;24.00;81.70;;;;;;4115179;28;20471;-56
2023/06/26 09:07:55;;;;;;;6.57;1.98;;;23.90;83.00;;;;;;4114797;28;20109;-55
2023/06/26 09:10:00;;;;;;;12.55;2.80;;;24.00;82.50;;;;;;4113835;28;20050;-55
2023/06/26 09:12:03;;;;;;;8.52;2.70;;;24.20;82.20;;;;;;4114635;28;20498;-56
2023/06/26 09:14:07;;;;;;;6.82;2.40;;;24.30;81.40;;;;;;4114934;28;20051;-55
2023/06/26 09:16:09;;;;;;;10.77;2.33;;;24.40;79.80;;;;;;4117256;28;20047;-56
2023/06/26 09:18:13;;;;;;;7.50;2.00;;;24.40;79.30;;;;;;4118001;28;20073;-56
2023/06/26 09:20:15;;;;;;;7.10;2.30;;;24.40;79.00;;;;;;4116959;28;20142;-55
2023/06/26 09:22:19;;;;;;;6.80;1.80;;;24.30;79.40;;;;;;4117969;28;20073;-55
2023/06/26 09:24:22;;;;;;;8.02;2.20;;;24.50;80.00;;;;;;4117765;28;20047;-56
2023/06/26 09:26:25;;;;;;;8.13;2.10;;;24.50;77.70;;;;;;4117543;28;20087;-55
2023/06/26 09:28:28;;;;;;;7.20;2.22;;;24.50;77.40;;;;;;4117205;28;20113;-56
2023/06/26 09:30:32;;;;;;;6.68;2.20;;;24.20;77.30;;;;;;4117232;28;20047;-55
2023/06/26 09:32:35;;;;;;;10.35;2.80;;;24.20;78.00;;;;;;4117653;28;20477;-56
2023/06/26 09:34:43;;;;;;;6.00;1.92;;;24.00;76.60;;;;;;4117675;28;20113;-55
2023/06/26 09:36:47;;;;;;;6.78;2.25;;;24.20;77.90;;;;;;4117485;28;20050;-56
2023/06/26 09:38:51;;;;;;;8.30;2.17;;;24.40;77.90;;;;;;4116480;28;20125;-56
2023/06/26 09:40:53;;;;;;;9.43;1.80;;;24.50;77.70;;;;;;4117247;28;20075;-56
2023/06/26 09:43:02;;;;;;;7.60;2.40;;;24.20;74.90;;;;;;4117394;28;20055;-55
2023/06/26 09:45:05;;;;;;;9.00;2.28;;;24.20;75.10;;;;;;4117467;28;20047;-55
2023/06/26 09:47:08;;;;;;;4.72;1.48;;;24.10;73.60;;;;;;4117674;28;20046;-56
2023/06/26 09:49:11;;;;;;;7.97;1.95;;;24.30;73.80;;;;;;4116405;28;20043;-56
2023/06/26 09:51:13;;;;;;;8.43;1.90;;;24.40;74.00;;;;;;4117354;28;20109;-55
2023/06/26 09:53:18;;;;;;;8.05;2.20;;;24.40;74.20;;;;;;4117222;28;20042;-53
2023/06/26 09:55:22;;;;;;;9.00;2.17;;;24.40;74.70;;;;;;4117156;28;20420;-53
2023/06/26 09:57:24;;;;;;;9.63;2.05;;;24.60;74.60;;;;;;4117738;28;20050;-53
2023/06/26 09:59:27;;;;;;;5.88;2.20;;;24.70;75.00;;;;;;4116245;28;20515;-53
2023/06/26 10:01:30;;;;;;;6.07;2.45;;;24.90;74.80;;;;;;4117205;28;20081;-53
2023/06/26 10:03:32;;;;;;;5.80;1.95;;;24.60;74.20;;;;;;4117269;28;20050;-55
2023/06/26 10:05:35;;;;;;;5.80;1.92;;;24.50;72.80;;;;;;4117204;28;20457;-53
2023/06/26 10:07:37;;;;;;;10.57;2.08;;;24.60;73.40;;;;;;4117006;28;20089;-55
2023/06/26 10:09:42;;;;;;;6.03;2.20;;;24.70;72.80;;;;;;4115830;28;20054;-55
2023/06/26 10:11:50;;;;;;;10.88;2.10;;;24.60;74.00;;;;;;4117227;28;20138;-55
2023/06/26 10:13:56;;;;;;;7.72;1.98;;;24.70;73.90;;;;;;4117039;28;20071;-55
2023/06/26 10:16:21;;;;;;;7.85;2.20;;;24.90;73.60;;;;;;4116944;28;20050;-55
2023/06/26 10:18:28;;;;;;;7.25;2.10;;;24.90;73.90;;;;;;4116731;28;20047;-54
2023/06/26 10:20:31;;;;;;;7.47;1.90;;;25.10;73.90;;;;;;4115935;28;20074;-53
2023/06/26 10:22:37;;;;;;;9.13;1.90;;;24.90;73.70;;;;;;4116950;28;20043;-54
2023/06/26 10:24:40;;;;;;;7.57;1.92;;;24.50;72.70;;;;;;4116809;28;20065;-55
2023/06/26 10:26:49;;;;;;;6.07;2.10;;;24.60;72.40;;;;;;4116883;28;20081;-54
2023/06/26 10:28:54;;;;;;;4.28;1.85;;;24.50;71.70;;;;;;4116071;28;20137;-55
2023/06/26 10:30:57;;;;;;;5.10;2.85;;;24.60;72.10;;;;;;4116686;28;20047;-54
2023/06/26 10:33:00;;;;;;;7.35;2.10;;;24.80;71.70;;;;;;4116895;28;20058;-55
2023/06/26 10:35:03;;;;;;;3.95;1.80;;;24.80;71.90;;;;;;4116515;28;20126;-55
2023/06/26 10:37:05;;;;;;;5.70;2.05;;;25.00;71.30;;;;;;4116604;28;20074;-55